createdAt,value
2022-08-07T00:02:36.425Z,8.90
2022-08-07T00:04:59.769Z,4.50
2022-08-07T00:07:27.280Z,6.18
2022-08-07T00:10:11.066Z,5.45
2022-08-07T00:12:43.662Z,4.32
2022-08-07T00:15:25.788Z,5.30
2022-08-07T00:18:05.818Z,4.85
2022-08-07T00:20:34.407Z,5.70
2022-08-07T00:23:02.385Z,4.32
2022-08-07T00:25:37.282Z,4.85
2022-08-07T00:28:08.714Z,5.80
2022-08-07T00:30:37.504Z,4.93
2022-08-07T00:33:05.426Z,4.82
2022-08-07T00:35:35.154Z,5.20
2022-08-07T00:38:03.578Z,4.32
2022-08-07T00:40:39.624Z,7.63
2022-08-07T00:43:59.234Z,5.78
2022-08-07T00:46:01.971Z,5.47
2022-08-07T00:48:31.990Z,6.65
2022-08-07T00:51:00.521Z,7.00
2022-08-07T00:53:38.797Z,3.83
2022-08-07T00:56:15.535Z,5.95
2022-08-07T00:58:43.902Z,4.93
2022-08-07T01:01:15.384Z,6.07
2022-08-07T01:03:56.771Z,3.50
2022-08-07T01:06:28.915Z,5.43
2022-08-07T01:08:58.629Z,4.88
2022-08-07T01:12:09.747Z,5.28
2022-08-07T01:14:28.467Z,5.75
2022-08-07T01:16:56.563Z,7.25
2022-08-07T01:19:26.539Z,5.23
2022-08-07T01:21:55.276Z,6.00
2022-08-07T01:24:27.534Z,5.15
2022-08-07T01:26:54.688Z,4.20
2022-08-07T01:29:27.983Z,5.28
2022-08-07T01:32:05.383Z,4.97
2022-08-07T01:34:33.190Z,7.03
2022-08-07T01:37:05.816Z,4.68
2022-08-07T01:39:41.399Z,9.35
2022-08-07T01:42:38.393Z,5.72
2022-08-07T01:45:09.666Z,5.33
2022-08-07T01:48:21.370Z,6.93
2022-08-07T01:50:31.180Z,5.60
2022-08-07T01:53:00.069Z,5.43
2022-08-07T01:55:33.789Z,5.82
2022-08-07T01:58:29.086Z,7.00
2022-08-07T02:01:09.915Z,4.53
2022-08-07T02:03:50.209Z,6.32
2022-08-07T02:06:31.229Z,7.35
2022-08-07T02:09:05.366Z,5.38
2022-08-07T02:12:03.747Z,5.20
2022-08-07T02:14:40.181Z,6.20
2022-08-07T02:17:24.768Z,6.72
2022-08-07T02:20:05.205Z,6.43
2022-08-07T02:22:41.136Z,4.68
2022-08-07T02:25:13.921Z,6.13
2022-08-07T02:27:54.764Z,5.82
2022-08-07T02:30:22.533Z,5.32
2022-08-07T02:33:07.169Z,6.00
2022-08-07T02:36:28.700Z,6.70
2022-08-07T02:38:35.430Z,7.10
2022-08-07T02:41:04.783Z,7.10
2022-08-07T02:43:39.539Z,5.95
2022-08-07T02:46:08.616Z,6.05
2022-08-07T02:48:36.776Z,8.27
2022-08-07T02:51:14.265Z,7.30
2022-08-07T02:53:57.940Z,5.00
2022-08-07T02:56:27.967Z,10.00
2022-08-07T02:58:55.596Z,5.68
2022-08-07T03:01:35.671Z,8.10
2022-08-07T03:04:12.905Z,5.60
2022-08-07T03:06:44.798Z,6.78
2022-08-07T03:09:14.875Z,6.65
2022-08-07T03:12:06.835Z,8.43
2022-08-07T03:14:37.687Z,6.63
2022-08-07T03:17:08.739Z,8.33
2022-08-07T03:19:37.432Z,6.30
2022-08-07T03:22:07.709Z,10.90
2022-08-07T03:24:46.518Z,5.68
2022-08-07T03:27:15.800Z,7.88
2022-08-07T03:29:57.894Z,6.57
2022-08-07T03:32:31.243Z,6.85
2022-08-07T03:35:18.112Z,6.93
2022-08-07T03:37:53.777Z,8.23
2022-08-07T03:40:30.761Z,8.13
2022-08-07T03:43:04.551Z,8.53
2022-08-07T03:45:43.712Z,9.15
2022-08-07T03:48:15.993Z,10.75
2022-08-07T03:50:55.893Z,6.70
2022-08-07T03:53:50.256Z,10.98
2022-08-07T03:56:33.145Z,7.27
2022-08-07T03:59:09.984Z,6.90
2022-08-07T04:01:45.455Z,6.88
2022-08-07T04:04:17.183Z,7.55
2022-08-07T04:06:46.291Z,7.47
2022-08-07T04:09:19.662Z,7.60
2022-08-07T04:12:21.115Z,6.90
2022-08-07T04:14:43.736Z,11.73
2022-08-07T04:17:20.418Z,9.45
2022-08-07T04:20:02.932Z,6.82
2022-08-07T04:22:33.383Z,7.53
2022-08-07T04:25:08.854Z,8.85
2022-08-07T04:27:44.135Z,7.50
2022-08-07T04:30:36.000Z,8.35
2022-08-07T04:33:08.375Z,7.28
2022-08-07T04:35:38.595Z,7.47
2022-08-07T04:38:13.170Z,8.82
2022-08-07T04:40:52.481Z,7.82
2022-08-07T04:44:13.188Z,6.45
2022-08-07T04:46:34.840Z,6.60
2022-08-07T04:49:37.834Z,7.73
2022-08-07T04:52:51.853Z,8.55
2022-08-07T04:58:11.901Z,8.30
2022-08-07T04:58:27.943Z,6.28
2022-08-07T05:01:21.464Z,7.03
2022-08-07T05:04:08.846Z,6.87
2022-08-07T05:07:19.622Z,8.15
2022-08-07T05:10:11.618Z,7.15
2022-08-07T05:14:44.560Z,8.25
2022-08-07T05:15:53.591Z,8.27
2022-08-07T05:18:21.455Z,6.57
2022-08-07T05:20:54.634Z,6.80
2022-08-07T05:23:41.493Z,8.65
2022-08-07T05:26:23.552Z,10.55
2022-08-07T05:28:56.383Z,9.02
2022-08-07T05:31:34.589Z,9.03
2022-08-07T05:34:05.784Z,8.02
2022-08-07T05:36:42.391Z,7.82
2022-08-07T05:40:17.227Z,9.95
2022-08-07T05:42:12.540Z,8.60
2022-08-07T05:44:52.988Z,6.40
2022-08-07T05:47:38.426Z,7.13
2022-08-07T05:50:17.819Z,10.00
2022-08-07T05:52:44.752Z,9.20
2022-08-07T05:55:13.234Z,12.55
2022-08-07T05:57:45.668Z,12.67
2022-08-07T06:00:16.449Z,10.20
2022-08-07T06:02:53.614Z,10.27
2022-08-07T06:05:25.829Z,10.05
2022-08-07T06:08:14.430Z,12.30
2022-08-07T06:10:52.009Z,10.97
2022-08-07T06:14:11.763Z,12.07
2022-08-07T06:16:13.491Z,9.18
2022-08-07T06:18:42.960Z,13.45
2022-08-07T06:22:15.858Z,9.85
2022-08-07T06:24:37.444Z,8.90
2022-08-07T06:26:45.425Z,9.60
2022-08-07T06:29:14.121Z,9.80
2022-08-07T06:31:49.938Z,11.52
2022-08-07T06:34:20.757Z,13.93
2022-08-07T06:36:52.108Z,13.17
2022-08-07T06:40:17.253Z,11.27
2022-08-07T06:42:15.505Z,9.82
2022-08-07T06:45:01.788Z,10.65
2022-08-07T06:47:28.716Z,8.73
2022-08-07T06:50:18.924Z,12.07
2022-08-07T06:52:53.140Z,9.95
2022-08-07T06:55:47.914Z,10.20
2022-08-07T06:58:16.681Z,8.95
2022-08-07T07:00:57.347Z,8.43
2022-08-07T07:03:39.495Z,11.17
2022-08-07T07:06:11.765Z,13.00
2022-08-07T07:08:40.997Z,9.70
2022-08-07T07:12:07.823Z,10.05
2022-08-07T07:14:02.779Z,12.65
2022-08-07T07:16:45.015Z,9.60
2022-08-07T07:19:55.479Z,9.32
2022-08-07T07:22:36.214Z,9.82
2022-08-07T07:26:33.921Z,6.75
2022-08-07T07:28:29.937Z,9.32
2022-08-07T07:31:04.604Z,8.47
2022-08-07T07:33:35.974Z,7.25
2022-08-07T07:36:13.179Z,7.90
2022-08-07T07:38:43.421Z,6.82
2022-08-07T07:41:15.496Z,5.75
2022-08-07T07:43:47.971Z,4.93
2022-08-07T07:46:55.278Z,5.93
2022-08-07T07:50:35.274Z,5.32
2022-08-07T07:52:15.872Z,5.10
2022-08-07T07:54:50.891Z,6.88
2022-08-07T07:57:43.813Z,5.87
2022-08-07T08:00:09.452Z,6.07
2022-08-07T08:03:01.217Z,8.32
2022-08-07T08:05:30.267Z,5.82
2022-08-07T08:08:34.653Z,6.68
2022-08-07T08:11:08.596Z,5.90
2022-08-07T08:13:53.371Z,6.93
2022-08-07T08:16:29.705Z,5.85
2022-08-07T08:20:19.626Z,7.93
2022-08-07T08:22:24.062Z,5.40
2022-08-07T08:25:26.896Z,6.30
2022-08-07T08:28:16.922Z,6.35
2022-08-07T08:30:58.087Z,5.20
2022-08-07T08:33:33.222Z,4.68
2022-08-07T08:36:01.608Z,7.20
2022-08-07T08:38:40.583Z,5.93
2022-08-07T08:41:31.568Z,4.93
2022-08-07T08:44:44.674Z,6.57
2022-08-07T08:47:25.955Z,5.57
2022-08-07T08:50:05.020Z,6.97
2022-08-07T08:52:40.818Z,5.20
2022-08-07T08:55:55.211Z,5.45
2022-08-07T08:58:45.071Z,4.88
2022-08-07T09:01:19.818Z,3.80
2022-08-07T09:04:05.014Z,5.22
2022-08-07T09:06:47.665Z,6.00
2022-08-07T09:09:48.059Z,5.95
2022-08-07T09:12:31.835Z,4.70
2022-08-07T09:16:21.572Z,6.00
2022-08-07T09:18:35.019Z,6.63
2022-08-07T09:21:06.451Z,6.10
2022-08-07T09:24:54.865Z,6.18
2022-08-07T09:27:04.766Z,5.40
2022-08-07T09:30:04.787Z,4.43
2022-08-07T09:32:40.541Z,4.30
2022-08-07T09:36:02.927Z,5.63
2022-08-07T09:38:10.343Z,4.85
2022-08-07T09:41:05.838Z,8.40
2022-08-07T09:44:05.645Z,5.07
2022-08-07T09:47:52.425Z,4.35
2022-08-07T09:50:01.117Z,6.07
2022-08-07T09:52:56.147Z,4.88
2022-08-07T09:56:03.151Z,4.82
2022-08-07T09:58:57.736Z,3.78
2022-08-07T10:02:02.764Z,6.80
2022-08-07T10:05:12.737Z,5.73
2022-08-07T10:08:07.564Z,4.40
2022-08-07T10:11:59.069Z,3.80
2022-08-07T10:14:31.149Z,9.55
2022-08-07T10:18:01.293Z,5.60
2022-08-07T10:20:39.715Z,3.47
2022-08-07T10:24:05.956Z,4.70
2022-08-07T10:26:34.058Z,5.38
2022-08-07T10:29:30.511Z,4.75
2022-08-07T10:32:52.239Z,3.75
2022-08-07T10:35:55.723Z,3.73
2022-08-07T10:38:49.597Z,3.50
2022-08-07T10:41:52.145Z,2.97
2022-08-07T10:44:37.745Z,3.08
2022-08-07T10:47:27.018Z,4.03
2022-08-07T10:50:31.753Z,3.10
2022-08-07T10:53:44.316Z,3.88
2022-08-07T10:56:49.313Z,2.67
2022-08-07T10:59:23.987Z,4.03
2022-08-07T11:02:33.498Z,2.95
2022-08-07T11:05:50.515Z,5.13
2022-08-07T11:08:36.365Z,3.67
2022-08-07T11:11:21.049Z,4.97
2022-08-07T11:14:44.639Z,3.58
2022-08-07T11:17:23.137Z,3.10
2022-08-07T11:20:11.227Z,2.20
2022-08-07T11:23:09.290Z,4.80
2022-08-07T11:25:50.331Z,5.20
2022-08-07T11:28:53.302Z,3.47
2022-08-07T11:31:46.379Z,3.53
2022-08-07T11:34:42.502Z,2.77
2022-08-07T11:38:10.506Z,4.07
2022-08-07T11:40:54.316Z,4.07
2022-08-07T11:43:54.336Z,3.92
2022-08-07T11:46:36.688Z,2.90
2022-08-07T11:50:25.163Z,3.37
2022-08-07T11:53:06.673Z,3.47
2022-08-07T11:56:25.083Z,2.53
2022-08-07T12:00:08.061Z,3.35
2022-08-07T12:02:29.941Z,4.75
2022-08-07T12:05:28.600Z,2.67
2022-08-07T12:08:25.692Z,2.63
2022-08-07T12:11:21.279Z,3.20
2022-08-07T12:14:08.392Z,3.33
2022-08-07T12:16:51.124Z,3.80
2022-08-07T12:20:05.370Z,6.67
2022-08-07T12:22:56.012Z,4.75
2022-08-07T12:26:06.251Z,2.65
2022-08-07T12:29:02.967Z,5.75
2022-08-07T12:31:53.176Z,3.70
2022-08-07T12:34:32.886Z,5.60
2022-08-07T12:37:01.069Z,3.95
2022-08-07T12:39:43.605Z,4.50
2022-08-07T12:42:27.024Z,4.50
2022-08-07T12:44:57.997Z,4.38
2022-08-07T12:47:49.302Z,4.17
2022-08-07T12:50:34.383Z,5.43
2022-08-07T12:54:23.822Z,4.10
2022-08-07T12:56:33.407Z,3.72
2022-08-07T12:59:02.689Z,4.00
2022-08-07T13:02:12.709Z,6.00
2022-08-07T13:05:15.118Z,3.35
2022-08-07T13:08:20.458Z,3.15
2022-08-07T13:10:55.906Z,5.85
2022-08-07T13:14:00.652Z,4.20
2022-08-07T13:17:00.909Z,4.47
2022-08-07T13:19:50.551Z,3.72
2022-08-07T13:22:34.187Z,2.90
2022-08-07T13:25:04.137Z,3.13
2022-08-07T13:28:10.930Z,4.05
2022-08-07T13:30:41.281Z,3.60
2022-08-07T13:34:32.033Z,7.18
2022-08-07T13:36:26.075Z,4.35
2022-08-07T13:39:49.766Z,3.97
2022-08-07T13:42:03.032Z,3.88
2022-08-07T13:44:34.565Z,4.73
2022-08-07T13:47:09.318Z,5.55
2022-08-07T13:50:34.180Z,3.30
2022-08-07T13:52:39.532Z,3.35
2022-08-07T13:55:13.152Z,5.15
2022-08-07T13:58:01.682Z,5.10
2022-08-07T14:00:39.517Z,3.90
2022-08-07T14:03:30.015Z,3.80
2022-08-07T14:06:11.804Z,4.90
2022-08-07T14:08:48.702Z,4.63
2022-08-07T14:11:22.698Z,2.63
2022-08-07T14:13:55.690Z,4.15
2022-08-07T14:16:34.193Z,3.00
2022-08-07T14:19:11.199Z,5.18
2022-08-07T14:22:02.487Z,2.88
2022-08-07T14:24:37.426Z,2.90
2022-08-07T14:28:10.716Z,3.35
2022-08-07T14:30:11.600Z,5.78
2022-08-07T14:32:49.446Z,3.58
2022-08-07T14:35:45.176Z,3.45
2022-08-07T14:38:26.818Z,3.50
2022-08-07T14:41:15.038Z,3.13
2022-08-07T14:43:55.340Z,4.68
2022-08-07T14:46:31.357Z,4.28
2022-08-07T14:49:57.512Z,5.90
2022-08-07T14:52:03.662Z,2.60
2022-08-07T14:54:42.092Z,5.20
2022-08-07T14:57:19.608Z,3.75
2022-08-07T15:02:39.273Z,2.70
2022-08-07T15:05:19.689Z,2.70
2022-08-07T15:07:51.874Z,3.50
2022-08-07T15:10:26.226Z,5.85
2022-08-07T15:13:06.105Z,4.63
2022-08-07T15:15:52.628Z,3.85
2022-08-07T15:18:34.087Z,6.20
2022-08-07T15:21:43.721Z,4.22
2022-08-07T15:25:14.182Z,3.25
2022-08-07T15:26:56.590Z,3.53
2022-08-07T15:30:09.323Z,2.80
2022-08-07T15:32:12.800Z,2.27
2022-08-07T15:34:56.947Z,3.75
2022-08-07T15:37:29.281Z,3.70
2022-08-07T15:40:34.201Z,3.38
2022-08-07T15:43:10.679Z,5.60
2022-08-07T15:46:04.532Z,3.57
2022-08-07T15:49:03.738Z,2.55
2022-08-07T15:54:30.788Z,3.30
2022-08-07T15:57:10.591Z,4.60
2022-08-07T15:59:56.627Z,4.40
2022-08-07T16:02:29.914Z,5.40
2022-08-07T16:05:15.300Z,4.05
2022-08-07T16:08:33.647Z,4.70
2022-08-07T16:10:36.547Z,3.90
2022-08-07T16:13:58.764Z,3.93
2022-08-07T16:16:43.780Z,4.43
2022-08-07T16:19:59.473Z,4.38
2022-08-07T16:22:36.512Z,5.97
2022-08-07T16:25:53.976Z,3.85
2022-08-07T16:30:06.825Z,6.30
2022-08-07T16:31:51.290Z,4.65
2022-08-07T16:34:36.661Z,3.72
2022-08-07T16:38:09.307Z,3.30
2022-08-07T16:40:51.096Z,5.57
2022-08-07T16:44:02.460Z,12.80
2022-08-07T16:47:28.854Z,4.28
2022-08-07T16:50:27.837Z,4.45
2022-08-07T16:54:01.623Z,4.45
2022-08-07T16:56:20.565Z,5.13
2022-08-07T16:59:11.252Z,4.90
2022-08-07T17:02:03.005Z,5.70
2022-08-07T17:04:51.194Z,3.90
2022-08-07T17:07:55.191Z,6.97
2022-08-07T17:10:39.285Z,8.75
2022-08-07T17:13:41.379Z,4.90
2022-08-07T17:16:29.197Z,7.03
2022-08-07T17:19:04.706Z,6.05
2022-08-07T17:22:01.663Z,4.18
2022-08-07T17:25:11.683Z,4.82
2022-08-07T17:27:57.531Z,8.30
2022-08-07T17:30:30.171Z,6.40
2022-08-07T17:34:10.195Z,5.93
2022-08-07T17:36:19.978Z,4.70
2022-08-07T17:39:10.579Z,4.78
2022-08-07T17:42:14.113Z,5.67
2022-08-07T17:44:54.708Z,5.00
2022-08-07T17:47:38.525Z,7.65
2022-08-07T17:50:21.979Z,5.22
2022-08-07T17:53:59.432Z,4.25
2022-08-07T17:56:15.255Z,4.83
2022-08-07T17:58:50.432Z,5.10
2022-08-07T18:01:36.676Z,3.58
2022-08-07T18:04:35.145Z,5.07
2022-08-07T18:07:20.299Z,6.18
2022-08-07T18:10:09.793Z,7.00
2022-08-07T18:13:00.306Z,4.47
2022-08-07T18:16:33.022Z,5.55
2022-08-07T18:21:08.289Z,6.40
2022-08-07T18:22:43.513Z,6.40
2022-08-07T18:25:40.707Z,5.70
2022-08-07T18:28:35.481Z,9.15
2022-08-07T18:31:12.186Z,3.80
2022-08-07T18:34:39.257Z,4.60
2022-08-07T18:38:55.822Z,8.48
2022-08-07T18:41:08.128Z,5.47
2022-08-07T18:43:57.528Z,12.05
2022-08-07T18:46:47.280Z,6.07
2022-08-07T18:50:30.516Z,5.05
2022-08-07T18:52:54.196Z,5.15
2022-08-07T18:55:59.130Z,5.07
2022-08-07T18:58:40.196Z,5.47
2022-08-07T19:02:32.999Z,5.45
2022-08-07T19:04:54.568Z,9.40
2022-08-07T19:07:57.475Z,5.13
2022-08-07T19:10:31.281Z,5.63
2022-08-07T19:13:23.429Z,7.55
2022-08-07T19:16:05.847Z,7.28
2022-08-07T19:18:52.124Z,7.50
2022-08-07T19:21:44.299Z,13.63
2022-08-07T19:24:30.659Z,5.40
2022-08-07T19:28:30.745Z,9.43
2022-08-07T19:30:57.665Z,8.48
2022-08-07T19:32:52.468Z,8.20
2022-08-07T19:35:28.409Z,7.68
2022-08-07T19:38:16.132Z,6.07
2022-08-07T19:40:50.461Z,5.88
2022-08-07T19:43:50.223Z,8.75
2022-08-07T19:46:26.566Z,6.72
2022-08-07T19:49:07.202Z,5.00
2022-08-07T19:51:50.803Z,7.47
2022-08-07T19:54:31.491Z,4.57
2022-08-07T19:58:01.620Z,6.13
2022-08-07T19:59:59.752Z,8.13
2022-08-07T20:02:34.833Z,7.80
2022-08-07T20:05:09.720Z,6.10
2022-08-07T20:07:45.831Z,7.00
2022-08-07T20:10:38.024Z,8.55
2022-08-07T20:13:23.939Z,6.00
2022-08-07T20:15:59.495Z,8.93
2022-08-07T20:18:33.788Z,7.33
2022-08-07T20:21:14.279Z,11.82
2022-08-07T20:24:00.954Z,6.93
2022-08-07T20:26:45.065Z,5.95
2022-08-07T20:29:48.644Z,6.97
2022-08-07T20:32:05.607Z,5.30
2022-08-07T20:34:50.874Z,11.88
2022-08-07T20:37:29.918Z,8.32
2022-08-07T20:40:32.142Z,6.88
2022-08-07T20:42:57.164Z,7.35
2022-08-07T20:45:32.541Z,7.43
2022-08-07T20:48:25.864Z,6.53
2022-08-07T20:51:03.998Z,9.73
2022-08-07T20:54:03.730Z,7.43
2022-08-07T20:56:28.989Z,5.95
2022-08-07T20:59:02.609Z,8.40
2022-08-07T21:01:45.316Z,9.32
2022-08-07T21:04:22.666Z,13.73
2022-08-07T21:06:53.657Z,12.10
2022-08-07T21:09:24.499Z,7.13
2022-08-07T21:11:57.078Z,7.03
2022-08-07T21:14:32.515Z,9.85
2022-08-07T21:18:02.919Z,8.05
2022-08-07T21:20:04.685Z,10.88
2022-08-07T21:22:44.963Z,9.02
2022-08-07T21:25:44.384Z,8.60
2022-08-07T21:28:49.097Z,8.95
2022-08-07T21:32:47.152Z,17.58
2022-08-07T21:34:59.942Z,9.52
2022-08-07T21:37:58.972Z,8.85
2022-08-07T21:40:47.400Z,7.13
2022-08-07T21:43:56.732Z,7.70
2022-08-07T21:46:38.847Z,9.00
2022-08-07T21:49:27.033Z,9.05
2022-08-07T21:52:11.478Z,9.52
2022-08-07T21:54:52.543Z,8.73
2022-08-07T21:57:45.005Z,10.00
2022-08-07T22:00:25.142Z,10.50
2022-08-07T22:03:17.208Z,11.65
2022-08-07T22:05:58.516Z,10.07
2022-08-07T22:08:34.025Z,11.67
2022-08-07T22:11:03.841Z,10.10
2022-08-07T22:13:51.750Z,10.95
2022-08-07T22:16:46.163Z,11.80
2022-08-07T22:19:29.265Z,12.43
2022-08-07T22:22:28.985Z,11.43
2022-08-07T22:25:12.296Z,16.45
2022-08-07T22:28:20.006Z,9.63
2022-08-07T22:31:05.077Z,11.55
2022-08-07T22:33:57.226Z,11.88
2022-08-07T22:36:46.453Z,10.53
2022-08-07T22:39:23.817Z,16.00
2022-08-07T22:42:18.968Z,10.57
2022-08-07T22:44:58.373Z,8.90
2022-08-07T22:48:03.741Z,8.90
2022-08-07T22:51:38.697Z,15.20
2022-08-07T22:54:38.207Z,11.13
2022-08-07T22:57:29.919Z,13.93
2022-08-07T23:00:21.433Z,12.05
2022-08-07T23:03:20.149Z,12.48
2022-08-07T23:06:15.455Z,13.30
2022-08-07T23:10:06.296Z,12.88
2022-08-07T23:12:46.373Z,11.27
2022-08-07T23:16:06.870Z,11.23
2022-08-07T23:18:32.308Z,11.13
2022-08-07T23:21:29.848Z,12.23
2022-08-07T23:24:17.149Z,12.20
2022-08-07T23:27:01.297Z,11.55
2022-08-07T23:30:37.356Z,11.98
2022-08-07T23:34:36.540Z,15.15
2022-08-07T23:36:28.968Z,10.60
2022-08-07T23:39:04.760Z,11.77
2022-08-07T23:41:47.671Z,8.70
2022-08-07T23:45:01.208Z,12.00
2022-08-07T23:47:47.861Z,10.70
2022-08-07T23:50:33.464Z,9.10
2022-08-07T23:53:49.382Z,10.20
2022-08-07T23:56:23.402Z,11.00
